createdAt,value
2022-10-19T00:01:24.288Z,98001.47
2022-10-19T00:03:54.369Z,97997.00
2022-10-19T00:06:33.113Z,98004.69
2022-10-19T00:09:23.383Z,97995.84
2022-10-19T00:11:53.027Z,97990.94
2022-10-19T00:14:23.027Z,97993.88
2022-10-19T00:16:52.579Z,97991.88
2022-10-19T00:19:25.711Z,97990.06
2022-10-19T00:21:54.223Z,97986.06
2022-10-19T00:24:22.605Z,97985.78
2022-10-19T00:26:50.967Z,97977.00
2022-10-19T00:29:21.201Z,97979.47
2022-10-19T00:31:50.748Z,97985.78
2022-10-19T00:34:19.219Z,97971.44
2022-10-19T00:36:47.796Z,97976.38
2022-10-19T00:39:17.021Z,97970.66
2022-10-19T00:41:46.340Z,97973.56
2022-10-19T00:44:16.147Z,97965.19
2022-10-19T00:46:46.414Z,97968.31
2022-10-19T00:49:19.464Z,97967.63
2022-10-19T00:51:52.691Z,97959.00
2022-10-19T00:54:21.093Z,97955.16
2022-10-19T00:56:50.279Z,97945.91
2022-10-19T00:59:21.238Z,97940.69
2022-10-19T01:01:49.708Z,97936.28
2022-10-19T01:04:18.514Z,97934.13
2022-10-19T01:06:47.007Z,97941.16
2022-10-19T01:09:15.419Z,97937.53
2022-10-19T01:11:53.701Z,97931.41
2022-10-19T01:14:33.915Z,97931.94
2022-10-19T01:17:50.341Z,97929.00
2022-10-19T01:20:27.853Z,97931.09
2022-10-19T01:23:14.895Z,97926.16
2022-10-19T01:26:07.145Z,97918.38
2022-10-19T01:28:56.902Z,97921.03
2022-10-19T01:31:34.544Z,97924.31
2022-10-19T01:34:40.351Z,97922.63
2022-10-19T01:37:17.708Z,97917.25
2022-10-19T01:40:04.358Z,97916.41
2022-10-19T01:42:43.578Z,97914.72
2022-10-19T01:45:26.757Z,97912.31
2022-10-19T01:47:59.018Z,97905.19
2022-10-19T01:50:36.476Z,97904.47
2022-10-19T01:53:05.690Z,97890.84
2022-10-19T01:55:34.097Z,97896.94
2022-10-19T01:58:08.239Z,97892.16
2022-10-19T02:00:39.202Z,97897.41
2022-10-19T02:03:07.707Z,97900.38
2022-10-19T02:05:36.779Z,97899.13
2022-10-19T02:08:08.607Z,97897.97
2022-10-19T02:10:39.390Z,97893.88
2022-10-19T02:13:07.789Z,97896.94
2022-10-19T02:15:37.983Z,97891.63
2022-10-19T02:18:07.430Z,97885.28
2022-10-19T02:20:36.727Z,97899.63
2022-10-19T02:23:08.277Z,97906.69
2022-10-19T02:25:36.594Z,97899.41
2022-10-19T02:28:05.149Z,97903.50
2022-10-19T02:30:33.503Z,97901.94
2022-10-19T02:33:01.848Z,97908.06
2022-10-19T02:35:30.194Z,97911.66
2022-10-19T02:37:58.744Z,97910.31
2022-10-19T02:40:27.083Z,97905.22
2022-10-19T02:42:58.436Z,97913.19
2022-10-19T02:45:37.846Z,97907.97
2022-10-19T02:48:18.825Z,97906.41
2022-10-19T02:50:49.906Z,97909.34
2022-10-19T02:53:18.427Z,97907.50
2022-10-19T02:55:48.450Z,97903.81
2022-10-19T02:58:16.822Z,97898.25
2022-10-19T03:00:45.284Z,97899.59
2022-10-19T03:03:13.711Z,97904.84
2022-10-19T03:05:42.040Z,97901.72
2022-10-19T03:08:10.485Z,97906.78
2022-10-19T03:10:39.549Z,97902.25
2022-10-19T03:13:08.307Z,97907.03
2022-10-19T03:15:37.226Z,97904.31
2022-10-19T03:18:05.582Z,97906.47
2022-10-19T03:20:33.982Z,97900.41
2022-10-19T03:23:02.239Z,97905.19
2022-10-19T03:25:31.681Z,97898.81
2022-10-19T03:28:00.189Z,97909.72
2022-10-19T03:30:28.508Z,97906.66
2022-10-19T03:32:57.503Z,97906.72
2022-10-19T03:35:25.956Z,97900.16
2022-10-19T03:37:54.383Z,97900.81
2022-10-19T03:40:22.796Z,97898.63
2022-10-19T03:42:51.822Z,97900.78
2022-10-19T03:45:21.112Z,97896.81
2022-10-19T03:47:50.783Z,97896.97
2022-10-19T03:50:19.302Z,97900.38
2022-10-19T03:52:49.930Z,97908.72
2022-10-19T03:55:18.334Z,97901.22
2022-10-19T03:57:46.636Z,97901.22
2022-10-19T04:00:15.362Z,97901.34
2022-10-19T04:02:43.609Z,97900.75
2022-10-19T04:05:11.971Z,97893.09
2022-10-19T04:07:40.283Z,97885.94
2022-10-19T04:10:09.282Z,97884.69
2022-10-19T04:12:37.626Z,97883.47
2022-10-19T04:15:06.336Z,97882.69
2022-10-19T04:17:34.865Z,97873.78
2022-10-19T04:20:03.656Z,97872.22
2022-10-19T04:22:31.951Z,97869.91
2022-10-19T04:25:01.963Z,97865.75
2022-10-19T04:27:30.595Z,97856.84
2022-10-19T04:29:59.033Z,97871.47
2022-10-19T04:32:27.536Z,97863.03
2022-10-19T04:34:56.410Z,97864.47
2022-10-19T04:37:25.307Z,97859.72
2022-10-19T04:39:53.677Z,97862.22
2022-10-19T04:42:22.051Z,97865.13
2022-10-19T04:44:50.399Z,97854.13
2022-10-19T04:47:20.579Z,97856.53
2022-10-19T04:49:49.587Z,97866.38
2022-10-19T04:52:17.996Z,97867.03
2022-10-19T04:54:46.616Z,97862.72
2022-10-19T04:57:15.069Z,97861.91
2022-10-19T04:59:43.399Z,97868.94
2022-10-19T05:02:11.767Z,97873.09
2022-10-19T05:04:43.032Z,97866.72
2022-10-19T05:07:13.616Z,97872.44
2022-10-19T05:09:42.197Z,97870.88
2022-10-19T05:12:10.718Z,97866.41
2022-10-19T05:14:42.013Z,97856.38
2022-10-19T05:17:11.481Z,97861.13
2022-10-19T05:19:40.016Z,97864.84
2022-10-19T05:22:09.384Z,97856.34
2022-10-19T05:24:37.810Z,97869.44
2022-10-19T05:27:06.330Z,97855.72
2022-10-19T05:29:34.910Z,97860.66
2022-10-19T05:32:03.251Z,97851.75
2022-10-19T05:34:31.671Z,97859.38
2022-10-19T05:37:00.142Z,97855.50
2022-10-19T05:39:28.911Z,97855.53
2022-10-19T05:41:57.311Z,97849.75
2022-10-19T05:44:25.712Z,97864.13
2022-10-19T05:46:54.300Z,97850.19
2022-10-19T05:49:22.972Z,97849.91
2022-10-19T05:51:51.550Z,97853.38
2022-10-19T05:54:22.665Z,97851.16
2022-10-19T05:56:54.091Z,97844.47
2022-10-19T05:59:22.959Z,97840.25
2022-10-19T06:01:52.111Z,97836.63
2022-10-19T06:04:20.499Z,97838.66
2022-10-19T06:06:48.905Z,97833.69
2022-10-19T06:09:17.701Z,97842.78
2022-10-19T06:11:46.223Z,97840.22
2022-10-19T06:14:15.823Z,97837.22
2022-10-19T06:16:46.328Z,97835.16
2022-10-19T06:19:15.455Z,97837.38
2022-10-19T06:21:45.882Z,97836.91
2022-10-19T06:24:14.577Z,97837.91
2022-10-19T06:26:43.253Z,97834.38
2022-10-19T06:29:11.675Z,97846.41
2022-10-19T06:31:40.069Z,97845.28
2022-10-19T06:34:08.549Z,97835.72
2022-10-19T06:36:37.016Z,97825.34
2022-10-19T06:39:05.437Z,97837.94
2022-10-19T06:41:34.521Z,97825.78
2022-10-19T06:44:19.552Z,97827.03
2022-10-19T06:46:47.951Z,97826.78
2022-10-19T06:49:16.545Z,97826.50
2022-10-19T06:51:45.054Z,97833.59
2022-10-19T06:54:13.555Z,97827.19
2022-10-19T06:56:42.261Z,97820.13
2022-10-19T06:59:13.521Z,97820.53
2022-10-19T07:01:43.135Z,97812.69
2022-10-19T07:04:11.556Z,97803.53
2022-10-19T07:06:40.033Z,97802.81
2022-10-19T07:09:08.559Z,97805.44
2022-10-19T07:11:40.401Z,97795.56
2022-10-19T07:14:14.028Z,97785.75
2022-10-19T07:16:42.502Z,97784.63
2022-10-19T07:19:12.092Z,97788.38
2022-10-19T07:21:42.471Z,97786.97
2022-10-19T07:24:11.699Z,97780.53
2022-10-19T07:26:40.470Z,97777.59
2022-10-19T07:29:08.950Z,97782.28
2022-10-19T07:31:37.410Z,97777.69
2022-10-19T07:34:06.162Z,97770.56
2022-10-19T07:36:35.627Z,97771.25
2022-10-19T07:39:07.587Z,97764.91
2022-10-19T07:41:36.108Z,97770.41
2022-10-19T07:44:04.974Z,97760.63
2022-10-19T07:46:37.518Z,97753.22
2022-10-19T07:49:08.302Z,97749.03
2022-10-19T07:51:38.265Z,97751.34
2022-10-19T07:54:08.558Z,97747.94
2022-10-19T07:56:37.716Z,97729.75
2022-10-19T07:59:06.137Z,97731.81
2022-10-19T08:01:37.243Z,97725.47
2022-10-19T08:06:54.360Z,97727.84
2022-10-19T08:09:51.026Z,97720.50
2022-10-19T08:12:15.238Z,97699.97
2022-10-19T08:14:44.072Z,97721.44
2022-10-19T08:17:16.939Z,97717.19
2022-10-19T08:19:46.592Z,97709.81
2022-10-19T08:22:16.009Z,97717.47
2022-10-19T08:24:44.537Z,97713.19
2022-10-19T08:27:13.186Z,97713.50
2022-10-19T08:29:41.560Z,97710.22
2022-10-19T08:32:10.093Z,97706.09
2022-10-19T08:34:38.645Z,97709.38
2022-10-19T08:37:19.722Z,97713.50
2022-10-19T08:39:56.268Z,97713.00
2022-10-19T08:42:48.179Z,97706.66
2022-10-19T08:48:36.944Z,97693.59
2022-10-19T08:51:06.049Z,97688.06
2022-10-19T08:53:43.651Z,97693.75
2022-10-19T08:56:49.798Z,97684.69
2022-10-19T08:59:20.340Z,97693.53
2022-10-19T09:02:00.356Z,97684.94
2022-10-19T09:04:37.548Z,97690.59
2022-10-19T09:07:24.791Z,97677.06
2022-10-19T09:10:00.717Z,97684.31
2022-10-19T09:12:44.451Z,97676.72
2022-10-19T09:15:15.391Z,97671.94
2022-10-19T09:17:43.772Z,97678.75
2022-10-19T09:20:23.207Z,97690.41
2022-10-19T09:23:06.692Z,97689.66
2022-10-19T09:25:38.363Z,97686.50
2022-10-19T09:28:39.850Z,97676.47
2022-10-19T09:31:31.748Z,97683.78
2022-10-19T09:34:19.108Z,97669.41
2022-10-19T09:36:52.638Z,97675.66
2022-10-19T09:39:23.452Z,97673.03
2022-10-19T09:41:58.595Z,97674.38
2022-10-19T09:44:27.581Z,97674.72
2022-10-19T09:47:21.079Z,97668.44
2022-10-19T09:49:49.767Z,97672.97
2022-10-19T09:52:37.315Z,97666.63
2022-10-19T09:55:14.751Z,97663.50
2022-10-19T09:57:44.175Z,97652.47
2022-10-19T10:00:24.810Z,97646.84
2022-10-19T10:02:56.846Z,97646.53
2022-10-19T10:05:39.964Z,97647.09
2022-10-19T10:08:17.804Z,97641.94
2022-10-19T10:10:50.180Z,97628.91
2022-10-19T10:13:20.706Z,97633.31
2022-10-19T10:15:52.358Z,97631.78
2022-10-19T10:18:21.606Z,97618.38
2022-10-19T10:21:04.935Z,97620.53
2022-10-19T10:23:36.930Z,97615.03
2022-10-19T10:26:16.037Z,97608.16
2022-10-19T10:28:50.419Z,97608.00
2022-10-19T10:31:48.698Z,97611.00
2022-10-19T10:34:38.560Z,97601.09
2022-10-19T10:37:23.179Z,97593.28
2022-10-19T10:39:53.169Z,97586.88
2022-10-19T10:42:28.266Z,97576.63
2022-10-19T10:44:56.765Z,97567.00
2022-10-19T10:47:27.376Z,97569.31
2022-10-19T10:50:01.666Z,97566.44
2022-10-19T10:52:31.836Z,97555.53
2022-10-19T10:55:10.259Z,97551.03
2022-10-19T10:57:47.595Z,97554.00
2022-10-19T11:00:19.972Z,97551.69
2022-10-19T11:03:08.733Z,97544.28
2022-10-19T11:05:42.674Z,97542.75
2022-10-19T11:08:29.748Z,97536.22
2022-10-19T11:10:58.082Z,97536.66
2022-10-19T11:13:32.140Z,97541.28
2022-10-19T11:16:22.800Z,97537.34
2022-10-19T11:18:53.552Z,97531.78
2022-10-19T11:21:37.050Z,97528.97
2022-10-19T11:24:15.626Z,97518.31
2022-10-19T11:27:06.513Z,97513.44
2022-10-19T11:29:56.125Z,97519.78
2022-10-19T11:32:34.649Z,97514.16
2022-10-19T11:35:32.979Z,97503.06
2022-10-19T11:38:30.388Z,97499.44
2022-10-19T11:41:35.983Z,97501.38
2022-10-19T11:44:17.191Z,97508.00
2022-10-19T11:46:54.358Z,97502.03
2022-10-19T11:49:53.051Z,97491.72
2022-10-19T11:52:25.242Z,97492.97
2022-10-19T11:55:27.637Z,97490.34
2022-10-19T11:58:28.997Z,97483.84
2022-10-19T12:01:13.965Z,97480.91
2022-10-19T12:04:02.293Z,97476.06
2022-10-19T12:07:23.278Z,97475.28
2022-10-19T12:09:55.065Z,97480.28
2022-10-19T12:12:35.040Z,97474.56
2022-10-19T12:15:12.871Z,97471.28
2022-10-19T12:17:43.415Z,97476.34
2022-10-19T12:20:54.135Z,97476.72
2022-10-19T12:23:28.989Z,97479.09
2022-10-19T12:25:58.133Z,97478.94
2022-10-19T12:28:33.430Z,97474.50
2022-10-19T12:31:02.306Z,97470.97
2022-10-19T12:33:44.408Z,97461.13
2022-10-19T12:36:34.173Z,97459.75
2022-10-19T12:39:34.864Z,97457.56
2022-10-19T12:42:18.912Z,97448.81
2022-10-19T12:44:58.899Z,97448.00
2022-10-19T12:47:27.624Z,97437.13
2022-10-19T12:49:56.760Z,97437.28
2022-10-19T12:52:44.947Z,97433.09
2022-10-19T12:55:15.838Z,97432.53
2022-10-19T12:57:48.464Z,97432.03
2022-10-19T13:00:36.267Z,97428.69
2022-10-19T13:03:15.637Z,97426.31
2022-10-19T13:05:44.845Z,97426.88
2022-10-19T13:08:14.605Z,97422.69
2022-10-19T13:10:43.603Z,97431.78
2022-10-19T13:13:51.463Z,97430.78
2022-10-19T13:16:57.084Z,97421.13
2022-10-19T13:19:25.795Z,97422.25
2022-10-19T13:22:01.276Z,97417.69
2022-10-19T13:24:35.174Z,97419.84
2022-10-19T13:27:05.407Z,97423.09
2022-10-19T13:29:39.920Z,97417.75
2022-10-19T13:32:35.831Z,97421.28
2022-10-19T13:35:28.534Z,97426.97
2022-10-19T13:38:17.656Z,97419.22
2022-10-19T13:40:53.124Z,97415.31
2022-10-19T13:43:27.948Z,97420.59
2022-10-19T13:46:15.471Z,97412.63
2022-10-19T13:49:02.868Z,97408.31
2022-10-19T13:51:55.211Z,97406.13
2022-10-19T13:55:02.234Z,97412.06
2022-10-19T13:57:42.760Z,97405.25
2022-10-19T14:00:30.115Z,97396.16
2022-10-19T14:03:19.847Z,97403.03
2022-10-19T14:05:52.083Z,97409.28
2022-10-19T14:09:15.212Z,97406.44
2022-10-19T14:11:46.101Z,97399.19
2022-10-19T14:14:19.387Z,97392.59
2022-10-19T14:17:03.868Z,97395.25
2022-10-19T14:19:51.569Z,97396.81
2022-10-19T14:22:40.953Z,97388.53
2022-10-19T14:25:19.284Z,97404.50
2022-10-19T14:27:49.291Z,97409.09
2022-10-19T14:30:22.240Z,97404.19
2022-10-19T14:32:50.810Z,97407.38
2022-10-19T14:35:32.290Z,97408.72
2022-10-19T14:38:01.911Z,97405.25
2022-10-19T14:40:32.190Z,97405.03
2022-10-19T14:43:02.411Z,97407.59
2022-10-19T14:45:33.285Z,97414.63
2022-10-19T14:48:06.759Z,97406.00
2022-10-19T14:50:52.332Z,97413.78
2022-10-19T14:53:41.123Z,97414.50
2022-10-19T14:56:19.498Z,97413.78
2022-10-19T14:59:01.912Z,97413.56
2022-10-19T15:01:33.549Z,97406.66
2022-10-19T15:04:01.966Z,97416.75
2022-10-19T15:06:36.003Z,97417.41
2022-10-19T15:09:09.394Z,97428.84
2022-10-19T15:11:44.753Z,97429.09
2022-10-19T15:14:18.551Z,97424.22
2022-10-19T15:16:49.657Z,97428.13
2022-10-19T15:19:30.980Z,97431.25
2022-10-19T15:22:17.218Z,97427.34
2022-10-19T15:25:13.094Z,97432.69
2022-10-19T15:27:47.094Z,97437.09
2022-10-19T15:30:18.772Z,97445.88
2022-10-19T15:32:54.281Z,97436.00
2022-10-19T15:35:31.541Z,97433.53
2022-10-19T15:38:12.744Z,97437.22
2022-10-19T15:40:44.555Z,97448.19
2022-10-19T15:43:31.408Z,97443.00
2022-10-19T15:46:10.587Z,97448.44
2022-10-19T15:48:52.296Z,97445.84
2022-10-19T15:51:23.987Z,97458.03
2022-10-19T15:53:53.669Z,97459.84
2022-10-19T15:56:23.461Z,97467.91
2022-10-19T15:58:54.081Z,97463.47
2022-10-19T16:01:29.707Z,97469.38
2022-10-19T16:03:58.612Z,97466.19
2022-10-19T16:06:29.924Z,97480.47
2022-10-19T16:08:59.040Z,97480.63
2022-10-19T16:11:29.332Z,97486.41
2022-10-19T16:13:58.489Z,97489.47
2022-10-19T16:16:31.750Z,97492.44
2022-10-19T16:19:00.502Z,97503.69
2022-10-19T16:21:36.489Z,97502.84
2022-10-19T16:24:08.831Z,97508.91
2022-10-19T16:26:41.413Z,97504.47
2022-10-19T16:29:10.036Z,97511.09
2022-10-19T16:31:40.470Z,97518.88
2022-10-19T16:34:19.346Z,97520.81
2022-10-19T16:36:48.638Z,97524.75
2022-10-19T16:39:21.734Z,97527.34
2022-10-19T16:41:53.879Z,97533.88
2022-10-19T16:44:29.524Z,97531.47
2022-10-19T16:47:04.098Z,97533.88
2022-10-19T16:49:35.280Z,97533.56
2022-10-19T16:55:02.308Z,97542.81
2022-10-19T16:57:31.867Z,97539.06
2022-10-19T17:00:02.628Z,97545.69
2022-10-19T17:02:34.513Z,97550.09
2022-10-19T17:05:08.536Z,97551.81
2022-10-19T17:07:37.060Z,97561.13
2022-10-19T17:10:06.307Z,97565.28
2022-10-19T17:12:34.966Z,97559.06
2022-10-19T17:15:41.061Z,97565.66
2022-10-19T17:18:05.735Z,97567.50
2022-10-19T17:20:39.768Z,97564.38
2022-10-19T17:23:10.301Z,97568.06
2022-10-19T17:25:47.049Z,97564.59
2022-10-19T17:28:25.517Z,97560.16
2022-10-19T17:31:14.428Z,97567.66
2022-10-19T17:33:54.086Z,97562.53
2022-10-19T17:36:27.999Z,97567.94
2022-10-19T17:38:58.008Z,97567.78
2022-10-19T17:41:37.551Z,97573.19
2022-10-19T17:44:11.742Z,97585.34
2022-10-19T17:46:44.354Z,97569.13
2022-10-19T17:49:39.530Z,97584.75
2022-10-19T17:52:12.627Z,97574.84
2022-10-19T17:54:54.517Z,97566.72
2022-10-19T17:57:38.379Z,97578.91
2022-10-19T18:00:10.204Z,97561.34
2022-10-19T18:02:44.770Z,97571.50
2022-10-19T18:05:18.624Z,97569.59
2022-10-19T18:07:50.364Z,97570.03
2022-10-19T18:10:19.942Z,97574.75
2022-10-19T18:13:00.613Z,97581.19
2022-10-19T18:15:32.658Z,97575.78
2022-10-19T18:18:03.412Z,97592.44
2022-10-19T18:20:33.961Z,97593.97
2022-10-19T18:23:08.172Z,97592.47
2022-10-19T18:25:53.338Z,97589.56
2022-10-19T18:28:23.348Z,97593.09
2022-10-19T18:30:57.326Z,97589.25
2022-10-19T18:33:30.242Z,97597.81
2022-10-19T18:36:08.411Z,97597.59
2022-10-19T18:38:40.105Z,97597.81
2022-10-19T18:41:19.498Z,97609.06
2022-10-19T18:44:04.466Z,97614.22
2022-10-19T18:46:47.090Z,97614.69
2022-10-19T18:49:17.909Z,97621.63
2022-10-19T18:51:52.460Z,97623.63
2022-10-19T18:54:35.414Z,97633.31
2022-10-19T18:57:10.843Z,97636.19
2022-10-19T18:59:45.314Z,97641.44
2022-10-19T19:02:22.230Z,97650.69
2022-10-19T19:04:52.045Z,97648.28
2022-10-19T19:07:31.549Z,97647.09
2022-10-19T19:10:02.114Z,97656.84
2022-10-19T19:12:35.713Z,97662.44
2022-10-19T19:15:08.478Z,97664.13
2022-10-19T19:17:42.264Z,97665.44
2022-10-19T19:20:13.685Z,97666.31
2022-10-19T19:22:45.905Z,97674.91
2022-10-19T19:25:14.379Z,97673.00
2022-10-19T19:27:43.562Z,97670.84
2022-10-19T19:30:12.867Z,97682.47
2022-10-19T19:32:51.695Z,97685.63
2022-10-19T19:35:28.105Z,97686.19
2022-10-19T19:37:58.942Z,97691.78
2022-10-19T19:40:32.628Z,97684.38
2022-10-19T19:43:02.616Z,97693.88
2022-10-19T19:45:35.085Z,97688.34
2022-10-19T19:48:06.083Z,97699.50
2022-10-19T19:50:37.256Z,97697.53
2022-10-19T19:53:09.758Z,97712.53
2022-10-19T19:55:43.883Z,97703.53
2022-10-19T19:58:12.941Z,97709.59
2022-10-19T20:00:41.873Z,97706.13
2022-10-19T20:03:12.736Z,97712.97
2022-10-19T20:05:42.393Z,97715.97
2022-10-19T20:08:12.274Z,97725.84
2022-10-19T20:10:42.727Z,97729.31
2022-10-19T20:13:13.402Z,97724.75
2022-10-19T20:15:41.931Z,97721.72
2022-10-19T20:18:11.033Z,97714.38
2022-10-19T20:20:42.643Z,97716.09
2022-10-19T20:23:11.071Z,97716.88
2022-10-19T20:25:39.575Z,97723.38
2022-10-19T20:28:10.291Z,97725.72
2022-10-19T20:30:38.838Z,97720.69
2022-10-19T20:33:07.325Z,97725.09
2022-10-19T20:35:37.517Z,97716.91
2022-10-19T20:38:08.010Z,97731.41
2022-10-19T20:40:41.056Z,97721.63
2022-10-19T20:43:09.490Z,97733.13
2022-10-19T20:45:37.996Z,97729.03
2022-10-19T20:48:07.132Z,97730.88
2022-10-19T20:50:35.543Z,97734.16
2022-10-19T20:53:03.948Z,97733.56
2022-10-19T20:55:33.739Z,97733.81
2022-10-19T20:58:02.128Z,97733.81
2022-10-19T21:00:32.356Z,97734.91
2022-10-19T21:03:01.629Z,97732.03
2022-10-19T21:05:30.447Z,97728.13
2022-10-19T21:07:58.840Z,97727.97
2022-10-19T21:10:27.487Z,97717.59
2022-10-19T21:12:55.775Z,97729.53
2022-10-19T21:15:24.211Z,97721.66
2022-10-19T21:17:53.244Z,97727.25
2022-10-19T21:20:21.654Z,97729.06
2022-10-19T21:22:50.831Z,97734.25
2022-10-19T21:25:19.213Z,97729.66
2022-10-19T21:27:47.561Z,97731.22
2022-10-19T21:30:15.918Z,97732.41
2022-10-19T21:32:44.355Z,97728.63
2022-10-19T21:35:13.484Z,97731.41
2022-10-19T21:37:41.873Z,97746.63
2022-10-19T21:40:10.807Z,97741.44
2022-10-19T21:42:39.191Z,97747.06
2022-10-19T21:45:28.710Z,97745.59
2022-10-19T21:47:57.918Z,97752.34
2022-10-19T21:50:26.290Z,97748.97
2022-10-19T21:52:55.243Z,97757.00
2022-10-19T21:55:25.331Z,97753.84
2022-10-19T21:57:53.709Z,97745.72
2022-10-19T22:00:22.079Z,97752.94
2022-10-19T22:02:50.512Z,97741.66
2022-10-19T22:05:18.870Z,97762.31
2022-10-19T22:07:47.338Z,97763.53
2022-10-19T22:10:15.730Z,97754.56
2022-10-19T22:12:44.113Z,97761.13
2022-10-19T22:15:12.646Z,97772.56
2022-10-19T22:17:41.118Z,97765.22
2022-10-19T22:20:09.874Z,97762.84
2022-10-19T22:22:38.299Z,97759.22
2022-10-19T22:25:07.046Z,97755.63
2022-10-19T22:27:35.915Z,97760.88
2022-10-19T22:30:04.486Z,97764.53
2022-10-19T22:32:33.632Z,97763.69
2022-10-19T22:35:02.562Z,97770.88
2022-10-19T22:37:30.862Z,97773.09
2022-10-19T22:39:59.764Z,97773.03
2022-10-19T22:43:24.504Z,97774.91
2022-10-19T22:47:07.678Z,97779.59
2022-10-19T22:50:50.949Z,97787.97
2022-10-19T22:53:37.934Z,97787.63
2022-10-19T22:56:07.294Z,97774.47
2022-10-19T22:58:35.714Z,97782.72
2022-10-19T23:01:09.649Z,97785.06
2022-10-19T23:03:39.621Z,97791.84
2022-10-19T23:06:09.994Z,97787.53
2022-10-19T23:08:38.505Z,97785.19
2022-10-19T23:11:07.651Z,97790.38
2022-10-19T23:13:36.114Z,97784.09
2022-10-19T23:16:04.618Z,97775.81
2022-10-19T23:18:36.763Z,97781.22
2022-10-19T23:21:13.138Z,97780.25
2022-10-19T23:23:41.577Z,97775.84
2022-10-19T23:26:15.123Z,97787.03
2022-10-19T23:28:44.996Z,97787.97
2022-10-19T23:31:18.333Z,97778.06
2022-10-19T23:33:47.058Z,97776.56
2022-10-19T23:36:17.203Z,97782.31
2022-10-19T23:38:45.569Z,97785.34
2022-10-19T23:41:14.079Z,97798.38
2022-10-19T23:43:42.545Z,97794.88
2022-10-19T23:46:11.106Z,97788.75
2022-10-19T23:48:39.547Z,97802.00
2022-10-19T23:51:16.256Z,97789.03
2022-10-19T23:53:45.953Z,97795.81
2022-10-19T23:56:18.422Z,97796.78
2022-10-19T23:58:47.112Z,97803.56
